Colonia, New Jersey
Current Conditions -  °F | °C
As of 8:55 PM on Wednesday 22 Oct 2014 (Local Time) from KLDJ Reporting Station
Drizzle Drizzle  
Wind Chill: 56°   Ceiling: 2500
Heat Index: 56°   Visibility: 7mi
Dew Point: 52°   Wind: 17mph
Humidity: 87%   Direction: 350°N
Pressure: 29.8"   Gusts: 24mph
Location:  40.6°N, 74.33°W
Report Text: KLDJ 230055Z AUTO 35015G21KT 7SM DZ SCT020 BKN025 OVC031 13/11 A2980 RMK AO2 LTG DSNT E AND SE P0002 T01330112
Loading
Personal Weather Stations






























Interactive Weather Map
Tropical Storm Tracking
New forecast layout! Learn more

10-Day Weather Forecast

Advertisements
Track Severe Weather on mobile